createdAt,value
2019-02-15T10:55:29.415Z,4.4
2019-02-15T11:00:21.255Z,3.8
2019-02-15T11:19:21.487Z,3.5
2019-02-15T11:23:46.053Z,3.8
2019-02-15T11:27:20.791Z,3.5
2019-02-15T11:33:09.459Z,3.7
2019-02-15T11:38:57.461Z,4
2019-02-15T11:40:27.883Z,3.9
2019-02-15T11:45:54.942Z,3.7
2019-02-15T11:48:55.124Z,3.9
2019-02-15T11:53:03.791Z,4
2019-02-15T12:05:10.134Z,3.9
2019-02-15T12:15:24.321Z,3.6
2019-02-15T12:34:19.667Z,3.4
2019-02-15T12:52:05.824Z,3.9
2019-02-15T13:06:47.016Z,3.4
2019-02-15T14:02:31.064Z,4.5
2019-02-15T15:46:38.400Z,4.2
2019-02-15T15:59:12.154Z,4.3
2019-02-15T16:10:15.495Z,4
2019-02-15T16:58:23.732Z,10.8
2019-02-15T17:12:26.895Z,9.2
2019-02-15T17:15:24.964Z,8.6
2019-02-15T17:39:19.741Z,8.6
2019-02-15T17:50:06.924Z,8.8
2019-02-15T18:00:53.743Z,8.3
2019-02-15T18:11:40.741Z,7.3
2019-02-15T18:22:29.323Z,7.3
2019-02-15T18:33:16.231Z,6.6
2019-02-15T18:44:03.878Z,6.9
2019-02-15T18:54:51.016Z,6.9
2019-02-15T19:05:37.971Z,6.3
2019-02-15T19:16:24.807Z,6
2019-02-15T19:27:14.427Z,6.3
2019-02-15T19:38:02.662Z,8.7
2019-02-15T19:48:49.961Z,6.6
2019-02-15T19:59:37.558Z,6.3
2019-02-15T20:10:24.719Z,6.3
2019-02-15T20:19:53.918Z,7.2
2019-02-15T20:30:40.697Z,7.9
2019-02-15T20:41:27.683Z,6.8
2019-02-15T20:52:14.522Z,6.2
2019-02-15T21:03:01.779Z,5.7
2019-02-15T21:13:48.546Z,5.7
2019-02-15T21:24:35.421Z,5.7
2019-02-15T21:35:23.218Z,5.3
2019-02-15T21:46:10.299Z,6.8
2019-02-15T21:56:57.841Z,5.8
2019-02-15T22:07:45.194Z,5.9
2019-02-15T22:18:32.732Z,5.5
2019-02-15T22:29:20.079Z,6.7
2019-02-15T22:40:07.541Z,5.9
2019-02-15T22:50:54.762Z,6.2
2019-02-15T23:01:41.862Z,6.4
2019-02-15T23:12:28.826Z,6.9
2019-02-15T23:23:15.721Z,6.8
2019-02-15T23:34:02.751Z,7.5
2019-02-15T23:44:49.558Z,7.5
2019-02-15T23:55:36.310Z,7.8
